sensor_id;sensor_type;location;lat;lon;timestamp;pressure;altitude;pressure_sealevel;temperature;humidity
81931;BME280;71395;43.488;1.472;2023-07-30T00:01:36;100015.22;;;28.49;51.42
81931;BME280;71395;43.488;1.472;2023-07-30T00:04:02;100009.28;;;28.47;51.59
81931;BME280;71395;43.488;1.472;2023-07-30T00:06:28;99982.31;;;28.33;51.22
81931;BME280;71395;43.488;1.472;2023-07-30T00:08:53;99983.97;;;28.38;51.51
81931;BME280;71395;43.488;1.472;2023-07-30T00:11:18;100003.78;;;28.47;51.80
81931;BME280;71395;43.488;1.472;2023-07-30T00:13:44;99977.19;;;28.31;51.48
81931;BME280;71395;43.488;1.472;2023-07-30T00:16:09;99995.84;;;28.42;51.68
81931;BME280;71395;43.488;1.472;2023-07-30T00:18:34;100000.97;;;28.43;51.13
81931;BME280;71395;43.488;1.472;2023-07-30T00:21:00;99982.00;;;28.35;51.39
81931;BME280;71395;43.488;1.472;2023-07-30T00:23:25;99989.16;;;28.43;51.51
81931;BME280;71395;43.488;1.472;2023-07-30T00:25:51;99987.16;;;28.40;51.55
81931;BME280;71395;43.488;1.472;2023-07-30T00:28:16;99983.59;;;28.39;51.52
81931;BME280;71395;43.488;1.472;2023-07-30T00:30:41;99980.03;;;28.39;51.69
81931;BME280;71395;43.488;1.472;2023-07-30T00:33:07;99999.47;;;28.49;51.22
81931;BME280;71395;43.488;1.472;2023-07-30T00:35:32;100004.97;;;28.49;51.70
81931;BME280;71395;43.488;1.472;2023-07-30T00:37:58;100003.81;;;28.50;51.39
81931;BME280;71395;43.488;1.472;2023-07-30T00:40:23;100008.56;;;28.50;51.45
81931;BME280;71395;43.488;1.472;2023-07-30T00:42:48;100000.97;;;28.43;51.41
81931;BME280;71395;43.488;1.472;2023-07-30T00:45:14;100012.06;;;28.47;51.53
81931;BME280;71395;43.488;1.472;2023-07-30T00:47:40;100012.44;;;28.49;51.55
81931;BME280;71395;43.488;1.472;2023-07-30T00:50:07;100007.66;;;28.42;51.51
81931;BME280;71395;43.488;1.472;2023-07-30T00:52:33;100005.75;;;28.46;51.19
81931;BME280;71395;43.488;1.472;2023-07-30T00:55:01;100017.63;;;28.50;51.29
81931;BME280;71395;43.488;1.472;2023-07-30T00:57:28;100016.81;;;28.50;51.32
81931;BME280;71395;43.488;1.472;2023-07-30T00:59:54;100022.34;;;28.50;51.32
81931;BME280;71395;43.488;1.472;2023-07-30T01:02:21;100019.59;;;28.50;51.49
81931;BME280;71395;43.488;1.472;2023-07-30T01:04:46;100021.53;;;28.49;51.33
81931;BME280;71395;43.488;1.472;2023-07-30T01:07:12;100023.91;;;28.51;51.47
81931;BME280;71395;43.488;1.472;2023-07-30T01:09:37;100012.78;;;28.44;51.36
81931;BME280;71395;43.488;1.472;2023-07-30T01:12:04;99997.78;;;28.38;51.63
81931;BME280;71395;43.488;1.472;2023-07-30T01:14:31;100003.72;;;28.40;51.39
81931;BME280;71395;43.488;1.472;2023-07-30T01:16:58;100013.22;;;28.46;50.92
81931;BME280;71395;43.488;1.472;2023-07-30T01:19:23;100026.69;;;28.51;51.43
81931;BME280;71395;43.488;1.472;2023-07-30T01:21:48;100017.91;;;28.42;51.10
81931;BME280;71395;43.488;1.472;2023-07-30T01:24:14;100034.94;;;28.51;51.00
81931;BME280;71395;43.488;1.472;2023-07-30T01:29:15;100023.81;;;28.44;51.52
81931;BME280;71395;43.488;1.472;2023-07-30T01:31:46;100014.31;;;28.38;51.57
81931;BME280;71395;43.488;1.472;2023-07-30T01:34:17;100032.53;;;28.46;51.27
81931;BME280;71395;43.488;1.472;2023-07-30T01:36:45;100025.00;;;28.43;51.19
81931;BME280;71395;43.488;1.472;2023-07-30T01:39:11;100015.09;;;28.35;51.38
81931;BME280;71395;43.488;1.472;2023-07-30T01:41:36;100017.88;;;28.38;51.44
81931;BME280;71395;43.488;1.472;2023-07-30T01:44:02;100007.97;;;28.33;51.22
81931;BME280;71395;43.488;1.472;2023-07-30T01:46:27;100026.63;;;28.47;51.41
81931;BME280;71395;43.488;1.472;2023-07-30T01:48:53;100020.66;;;28.42;50.97
81931;BME280;71395;43.488;1.472;2023-07-30T01:51:18;100036.91;;;28.50;51.16
81931;BME280;71395;43.488;1.472;2023-07-30T01:53:44;100035.75;;;28.51;51.23
81931;BME280;71395;43.488;1.472;2023-07-30T01:56:09;100027.75;;;28.43;51.24
81931;BME280;71395;43.488;1.472;2023-07-30T01:58:34;100037.72;;;28.51;51.33
81931;BME280;71395;43.488;1.472;2023-07-30T02:01:00;100029.34;;;28.44;51.32
81931;BME280;71395;43.488;1.472;2023-07-30T02:03:25;100035.75;;;28.51;51.24
81931;BME280;71395;43.488;1.472;2023-07-30T02:05:50;100026.22;;;28.45;51.20
81931;BME280;71395;43.488;1.472;2023-07-30T02:08:16;100034.56;;;28.52;51.23
81931;BME280;71395;43.488;1.472;2023-07-30T02:10:41;100020.66;;;28.42;51.29
81931;BME280;71395;43.488;1.472;2023-07-30T02:13:07;100031.03;;;28.52;51.20
81931;BME280;71395;43.488;1.472;2023-07-30T02:15:32;100013.97;;;28.43;51.03
81931;BME280;71395;43.488;1.472;2023-07-30T02:17:57;100027.09;;;28.53;51.20
81931;BME280;71395;43.488;1.472;2023-07-30T02:20:23;100031.03;;;28.52;51.24
81931;BME280;71395;43.488;1.472;2023-07-30T02:22:48;100005.19;;;28.33;51.13
81931;BME280;71395;43.488;1.472;2023-07-30T02:25:13;100026.69;;;28.51;51.02
81931;BME280;71395;43.488;1.472;2023-07-30T02:27:39;99954.09;;;28.06;51.32
81931;BME280;71395;43.488;1.472;2023-07-30T02:30:05;100007.22;;;28.37;50.99
81931;BME280;71395;43.488;1.472;2023-07-30T02:32:30;100005.66;;;28.39;51.08
81931;BME280;71395;43.488;1.472;2023-07-30T02:34:56;100023.91;;;28.51;51.03
81931;BME280;71395;43.488;1.472;2023-07-30T02:37:21;100023.88;;;28.47;51.12
81931;BME280;71395;43.488;1.472;2023-07-30T02:39:46;100021.88;;;28.44;50.86
81931;BME280;71395;43.488;1.472;2023-07-30T02:42:12;100032.94;;;28.48;51.24
81931;BME280;71395;43.488;1.472;2023-07-30T02:44:37;100036.53;;;28.52;50.92
81931;BME280;71395;43.488;1.472;2023-07-30T02:47:03;100030.94;;;28.45;51.15
81931;BME280;71395;43.488;1.472;2023-07-30T02:49:28;100025.44;;;28.45;50.76
81931;BME280;71395;43.488;1.472;2023-07-30T02:51:53;100038.47;;;28.48;50.68
81931;BME280;71395;43.488;1.472;2023-07-30T02:54:19;100047.56;;;28.52;51.10
81931;BME280;71395;43.488;1.472;2023-07-30T02:56:47;100027.03;;;28.46;50.97
81931;BME280;71395;43.488;1.472;2023-07-30T02:59:12;100040.47;;;28.51;50.92
81931;BME280;71395;43.488;1.472;2023-07-30T03:01:38;100036.47;;;28.45;50.79
81931;BME280;71395;43.488;1.472;2023-07-30T03:04:04;100049.53;;;28.51;50.88
81931;BME280;71395;43.488;1.472;2023-07-30T03:06:29;100029.34;;;28.44;50.66
81931;BME280;71395;43.488;1.472;2023-07-30T03:08:55;100043.22;;;28.51;51.03
81931;BME280;71395;43.488;1.472;2023-07-30T03:11:22;100048.75;;;28.51;50.73
81931;BME280;71395;43.488;1.472;2023-07-30T03:13:47;100039.97;;;28.42;50.73
81931;BME280;71395;43.488;1.472;2023-07-30T03:16:13;100050.63;;;28.43;50.82
81931;BME280;71395;43.488;1.472;2023-07-30T03:18:38;100046.31;;;28.46;50.85
81931;BME280;71395;43.488;1.472;2023-07-30T03:21:03;100057.03;;;28.51;50.95
81931;BME280;71395;43.488;1.472;2023-07-30T03:23:29;100046.31;;;28.46;50.76
81931;BME280;71395;43.488;1.472;2023-07-30T03:25:54;100035.09;;;28.31;50.86
81931;BME280;71395;43.488;1.472;2023-07-30T03:28:20;100041.06;;;28.33;50.44
81931;BME280;71395;43.488;1.472;2023-07-30T03:30:45;100047.41;;;28.38;50.82
81931;BME280;71395;43.488;1.472;2023-07-30T03:33:10;100049.38;;;28.37;50.58
81931;BME280;71395;43.488;1.472;2023-07-30T03:35:36;100064.06;;;28.45;50.53
81931;BME280;71395;43.488;1.472;2023-07-30T03:38:02;100071.59;;;28.51;50.82
81931;BME280;71395;43.488;1.472;2023-07-30T03:40:28;100063.22;;;28.44;50.73
81931;BME280;71395;43.488;1.472;2023-07-30T03:42:54;100077.44;;;28.46;50.54
81931;BME280;71395;43.488;1.472;2023-07-30T03:45:19;100066.38;;;28.43;50.57
81931;BME280;71395;43.488;1.472;2023-07-30T03:47:45;100062.44;;;28.44;50.80
81931;BME280;71395;43.488;1.472;2023-07-30T03:50:10;100069.56;;;28.45;50.62
81931;BME280;71395;43.488;1.472;2023-07-30T03:52:36;100077.50;;;28.50;50.70
81931;BME280;71395;43.488;1.472;2023-07-30T03:55:01;100079.44;;;28.49;50.66
81931;BME280;71395;43.488;1.472;2023-07-30T03:57:26;100076.66;;;28.46;50.69
81931;BME280;71395;43.488;1.472;2023-07-30T03:59:52;100087.69;;;28.46;50.65
81931;BME280;71395;43.488;1.472;2023-07-30T04:02:17;100084.94;;;28.46;50.35
81931;BME280;71395;43.488;1.472;2023-07-30T04:04:43;100090.47;;;28.49;50.16
81931;BME280;71395;43.488;1.472;2023-07-30T04:07:13;100063.13;;;28.33;50.56
81931;BME280;71395;43.488;1.472;2023-07-30T04:09:38;100092.44;;;28.49;50.37
81931;BME280;71395;43.488;1.472;2023-07-30T04:12:04;100078.19;;;28.40;50.44
81931;BME280;71395;43.488;1.472;2023-07-30T04:14:30;100071.81;;;28.36;50.55
81931;BME280;71395;43.488;1.472;2023-07-30T04:16:56;100082.50;;;28.41;50.55
81931;BME280;71395;43.488;1.472;2023-07-30T04:19:21;100095.59;;;28.47;50.63
81931;BME280;71395;43.488;1.472;2023-07-30T04:21:47;100097.16;;;28.45;50.33
81931;BME280;71395;43.488;1.472;2023-07-30T04:24:12;100096.66;;;28.39;50.61
81931;BME280;71395;43.488;1.472;2023-07-30T04:26:38;100094.72;;;28.40;50.14
81931;BME280;71395;43.488;1.472;2023-07-30T04:29:03;100113.72;;;28.48;50.37
81931;BME280;71395;43.488;1.472;2023-07-30T04:31:28;100110.97;;;28.48;50.61
81931;BME280;71395;43.488;1.472;2023-07-30T04:33:54;100093.00;;;28.31;50.49
81931;BME280;71395;43.488;1.472;2023-07-30T04:36:19;100115.63;;;28.44;50.57
81931;BME280;71395;43.488;1.472;2023-07-30T04:38:45;100125.53;;;28.49;50.37
81931;BME280;71395;43.488;1.472;2023-07-30T04:41:10;100123.97;;;28.48;50.48
81931;BME280;71395;43.488;1.472;2023-07-30T04:43:35;100104.13;;;28.39;50.28
81931;BME280;71395;43.488;1.472;2023-07-30T04:46:01;100104.13;;;28.39;50.35
81931;BME280;71395;43.488;1.472;2023-07-30T04:48:26;100118.38;;;28.44;50.36
81931;BME280;71395;43.488;1.472;2023-07-30T04:50:52;100101.72;;;28.33;50.12
81931;BME280;71395;43.488;1.472;2023-07-30T04:53:17;100121.19;;;28.48;50.13
81931;BME280;71395;43.488;1.472;2023-07-30T04:55:43;100123.16;;;28.47;50.31
81931;BME280;71395;43.488;1.472;2023-07-30T04:58:09;100120.78;;;28.46;50.22
81931;BME280;71395;43.488;1.472;2023-07-30T05:00:34;100125.94;;;28.47;49.95
81931;BME280;71395;43.488;1.472;2023-07-30T05:03:00;100130.66;;;28.47;50.57
81931;BME280;71395;43.488;1.472;2023-07-30T05:05:25;100120.34;;;28.40;50.20
81931;BME280;71395;43.488;1.472;2023-07-30T05:07:50;100117.44;;;28.33;50.34
81931;BME280;71395;43.488;1.472;2023-07-30T05:10:16;100132.56;;;28.43;50.44
81931;BME280;71395;43.488;1.472;2023-07-30T05:12:41;100138.13;;;28.46;50.55
81931;BME280;71395;43.488;1.472;2023-07-30T05:15:07;100143.66;;;28.46;50.22
81931;BME280;71395;43.488;1.472;2023-07-30T05:17:33;100148.78;;;28.48;50.20
81931;BME280;71395;43.488;1.472;2023-07-30T05:19:58;100135.28;;;28.39;50.21
81931;BME280;71395;43.488;1.472;2023-07-30T05:22:24;100142.00;;;28.42;50.05
81931;BME280;71395;43.488;1.472;2023-07-30T05:24:50;100142.00;;;28.42;50.15
81931;BME280;71395;43.488;1.472;2023-07-30T05:27:16;100144.44;;;28.47;50.14
81931;BME280;71395;43.488;1.472;2023-07-30T05:29:41;100146.41;;;28.46;50.22
81931;BME280;71395;43.488;1.472;2023-07-30T05:32:07;100143.59;;;28.43;49.96
81931;BME280;71395;43.488;1.472;2023-07-30T05:34:32;100134.47;;;28.39;49.96
81931;BME280;71395;43.488;1.472;2023-07-30T05:36:58;100140.44;;;28.41;50.13
81931;BME280;71395;43.488;1.472;2023-07-30T05:39:23;100148.38;;;28.46;50.32
81931;BME280;71395;43.488;1.472;2023-07-30T05:41:49;100144.78;;;28.42;49.85
81931;BME280;71395;43.488;1.472;2023-07-30T05:44:14;100144.81;;;28.45;50.24
81931;BME280;71395;43.488;1.472;2023-07-30T05:46:39;100148.38;;;28.46;50.12
81931;BME280;71395;43.488;1.472;2023-07-30T05:49:05;100145.94;;;28.41;50.35
81931;BME280;71395;43.488;1.472;2023-07-30T05:51:30;100163.34;;;28.45;50.06
81931;BME280;71395;43.488;1.472;2023-07-30T05:53:55;100154.56;;;28.36;49.78
81931;BME280;71395;43.488;1.472;2023-07-30T05:56:21;100161.72;;;28.44;50.03
81931;BME280;71395;43.488;1.472;2023-07-30T05:58:46;100141.78;;;28.27;50.34
81931;BME280;71395;43.488;1.472;2023-07-30T06:01:12;100140.22;;;28.26;50.01
81931;BME280;71395;43.488;1.472;2023-07-30T06:03:37;100163.28;;;28.41;49.88
81931;BME280;71395;43.488;1.472;2023-07-30T06:06:03;100153.75;;;28.35;49.70
81931;BME280;71395;43.488;1.472;2023-07-30T06:08:28;100175.16;;;28.45;50.12
81931;BME280;71395;43.488;1.472;2023-07-30T06:10:55;100161.69;;;28.40;50.14
81931;BME280;71395;43.488;1.472;2023-07-30T06:13:20;100164.03;;;28.38;49.99
81931;BME280;71395;43.488;1.472;2023-07-30T06:15:46;100159.19;;;28.31;49.93
81931;BME280;71395;43.488;1.472;2023-07-30T06:18:11;100152.81;;;28.27;49.94
81931;BME280;71395;43.488;1.472;2023-07-30T06:20:36;100157.94;;;28.25;49.91
81931;BME280;71395;43.488;1.472;2023-07-30T06:23:02;100183.00;;;28.43;50.02
81931;BME280;71395;43.488;1.472;2023-07-30T06:25:29;100192.06;;;28.44;49.97
81931;BME280;71395;43.488;1.472;2023-07-30T06:27:54;100180.53;;;28.35;49.82
81931;BME280;71395;43.488;1.472;2023-07-30T06:30:22;100186.06;;;28.35;49.86
81931;BME280;71395;43.488;1.472;2023-07-30T06:32:47;100194.81;;;28.44;49.89
81931;BME280;71395;43.488;1.472;2023-07-30T06:35:13;100188.81;;;28.35;49.85
81931;BME280;71395;43.488;1.472;2023-07-30T06:37:38;100193.16;;;28.36;49.76
81931;BME280;71395;43.488;1.472;2023-07-30T06:40:04;100186.75;;;28.31;49.73
81931;BME280;71395;43.488;1.472;2023-07-30T06:42:31;100203.88;;;28.41;49.92
81931;BME280;71395;43.488;1.472;2023-07-30T06:44:56;100206.19;;;28.39;49.75
81931;BME280;71395;43.488;1.472;2023-07-30T06:47:22;100219.22;;;28.42;50.04
81931;BME280;71395;43.488;1.472;2023-07-30T06:49:47;100197.34;;;28.29;49.66
81931;BME280;71395;43.488;1.472;2023-07-30T06:52:12;100217.59;;;28.37;49.50
81931;BME280;71395;43.488;1.472;2023-07-30T06:54:38;100202.13;;;28.32;49.96
81931;BME280;71395;43.488;1.472;2023-07-30T06:57:03;100222.00;;;28.42;49.92
81931;BME280;71395;43.488;1.472;2023-07-30T06:59:29;100218.38;;;28.38;49.63
81931;BME280;71395;43.488;1.472;2023-07-30T07:01:54;100218.44;;;28.41;49.66
81931;BME280;71395;43.488;1.472;2023-07-30T07:04:19;100221.59;;;28.40;49.70
81931;BME280;71395;43.488;1.472;2023-07-30T07:06:45;100213.72;;;28.42;49.64
81931;BME280;71395;43.488;1.472;2023-07-30T07:09:10;100212.81;;;28.34;49.97
81931;BME280;71395;43.488;1.472;2023-07-30T07:11:36;100224.75;;;28.42;49.86
81931;BME280;71395;43.488;1.472;2023-07-30T07:14:01;100207.25;;;28.30;49.87
81931;BME280;71395;43.488;1.472;2023-07-30T07:16:28;100228.69;;;28.41;49.67
81931;BME280;71395;43.488;1.472;2023-07-30T07:18:53;100214.78;;;28.33;49.58
81931;BME280;71395;43.488;1.472;2023-07-30T07:21:18;100203.25;;;28.28;49.62
81931;BME280;71395;43.488;1.472;2023-07-30T07:23:45;100217.97;;;28.36;49.67
81931;BME280;71395;43.488;1.472;2023-07-30T07:26:11;100178.66;;;28.16;49.52
81931;BME280;71395;43.488;1.472;2023-07-30T07:28:36;100200.88;;;28.26;49.53
81931;BME280;71395;43.488;1.472;2023-07-30T07:31:01;100215.22;;;28.36;49.69
81931;BME280;71395;43.488;1.472;2023-07-30T07:33:27;100195.34;;;28.26;49.54
81931;BME280;71395;43.488;1.472;2023-07-30T07:36:05;100207.25;;;28.30;49.71
81931;BME280;71395;43.488;1.472;2023-07-30T07:38:32;100233.41;;;28.40;49.91
81931;BME280;71395;43.488;1.472;2023-07-30T07:40:57;100225.88;;;28.37;49.48
81931;BME280;71395;43.488;1.472;2023-07-30T07:43:23;100234.19;;;28.41;49.59
81931;BME280;71395;43.488;1.472;2023-07-30T07:45:48;100229.84;;;28.40;49.75
81931;BME280;71395;43.488;1.472;2023-07-30T07:48:13;100223.06;;;28.33;49.51
81931;BME280;71395;43.488;1.472;2023-07-30T07:50:39;100207.13;;;28.23;49.67
81931;BME280;71395;43.488;1.472;2023-07-30T07:53:04;100235.38;;;28.40;49.53
81931;BME280;71395;43.488;1.472;2023-07-30T07:55:29;100229.03;;;28.39;49.54
81931;BME280;71395;43.488;1.472;2023-07-30T07:57:55;100217.47;;;28.30;49.71
81931;BME280;71395;43.488;1.472;2023-07-30T08:00:20;100242.03;;;28.39;49.89
81931;BME280;71395;43.488;1.472;2023-07-30T08:02:46;100247.53;;;28.39;49.37
81931;BME280;71395;43.488;1.472;2023-07-30T08:05:12;100215.34;;;28.20;49.42
81931;BME280;71395;43.488;1.472;2023-07-30T08:07:38;100228.84;;;28.28;49.35
81931;BME280;71395;43.488;1.472;2023-07-30T08:10:03;100247.53;;;28.39;49.57
81931;BME280;71395;43.488;1.472;2023-07-30T08:12:31;100235.97;;;28.29;49.53
81931;BME280;71395;43.488;1.472;2023-07-30T08:14:57;100246.75;;;28.38;49.44
81931;BME280;71395;43.488;1.472;2023-07-30T08:17:24;100229.63;;;28.25;49.41
81931;BME280;71395;43.488;1.472;2023-07-30T08:19:49;100232.47;;;28.32;49.33
81931;BME280;71395;43.488;1.472;2023-07-30T08:22:14;100245.97;;;28.38;50.04
81931;BME280;71395;43.488;1.472;2023-07-30T08:24:40;100252.66;;;28.37;49.53
81931;BME280;71395;43.488;1.472;2023-07-30T08:27:05;100247.88;;;28.33;49.17
81931;BME280;71395;43.488;1.472;2023-07-30T08:29:31;100253.06;;;28.39;49.34
81931;BME280;71395;43.488;1.472;2023-07-30T08:31:56;100224.41;;;28.20;49.35
81931;BME280;71395;43.488;1.472;2023-07-30T08:34:22;100256.19;;;28.37;49.33
81931;BME280;71395;43.488;1.472;2023-07-30T08:36:48;100244.22;;;28.29;49.32
81931;BME280;71395;43.488;1.472;2023-07-30T08:39:13;100236.34;;;28.28;49.29
81931;BME280;71395;43.488;1.472;2023-07-30T08:41:39;100251.47;;;28.38;49.53
81931;BME280;71395;43.488;1.472;2023-07-30T08:44:05;100255.00;;;28.35;49.29
81931;BME280;71395;43.488;1.472;2023-07-30T08:46:30;100250.69;;;28.37;49.47
81931;BME280;71395;43.488;1.472;2023-07-30T08:48:56;100250.63;;;28.33;49.35
81931;BME280;71395;43.488;1.472;2023-07-30T08:51:23;100256.19;;;28.37;49.22
81931;BME280;71395;43.488;1.472;2023-07-30T08:53:54;100247.81;;;28.30;49.45
81931;BME280;71395;43.488;1.472;2023-07-30T08:56:21;100260.13;;;28.36;49.36
81931;BME280;71395;43.488;1.472;2023-07-30T08:58:47;100242.97;;;28.23;49.50
81931;BME280;71395;43.488;1.472;2023-07-30T09:01:16;100245.41;;;28.28;49.30
81931;BME280;71395;43.488;1.472;2023-07-30T09:03:43;100256.88;;;28.30;49.46
81931;BME280;71395;43.488;1.472;2023-07-30T09:06:09;100252.94;;;28.31;49.35
81931;BME280;71395;43.488;1.472;2023-07-30T09:08:34;100250.19;;;28.31;49.37
81931;BME280;71395;43.488;1.472;2023-07-30T09:11:07;100252.66;;;28.37;49.08
81931;BME280;71395;43.488;1.472;2023-07-30T09:13:37;100242.66;;;28.28;49.50
81931;BME280;71395;43.488;1.472;2023-07-30T09:16:08;100260.84;;;28.33;48.98
81931;BME280;71395;43.488;1.472;2023-07-30T09:18:45;100260.94;;;28.37;49.34
81931;BME280;71395;43.488;1.472;2023-07-30T09:21:12;100253.81;;;28.36;49.28
81931;BME280;71395;43.488;1.472;2023-07-30T09:23:45;100259.34;;;28.36;49.40
81931;BME280;71395;43.488;1.472;2023-07-30T09:26:11;100260.50;;;28.35;49.27
81931;BME280;71395;43.488;1.472;2023-07-30T09:28:36;100242.66;;;28.28;49.16
81931;BME280;71395;43.488;1.472;2023-07-30T09:31:03;100248.16;;;28.28;49.23
81931;BME280;71395;43.488;1.472;2023-07-30T09:33:31;100258.56;;;28.35;49.04
81931;BME280;71395;43.488;1.472;2023-07-30T09:35:56;100263.28;;;28.35;49.15
81931;BME280;71395;43.488;1.472;2023-07-30T09:38:22;100251.34;;;28.30;49.11
81931;BME280;71395;43.488;1.472;2023-07-30T09:40:47;100252.09;;;28.27;49.55
81931;BME280;71395;43.488;1.472;2023-07-30T09:43:15;100246.56;;;28.27;49.18
81931;BME280;71395;43.488;1.472;2023-07-30T09:45:43;100251.34;;;28.30;49.17
81931;BME280;71395;43.488;1.472;2023-07-30T09:48:09;100233.00;;;28.15;49.22
81931;BME280;71395;43.488;1.472;2023-07-30T09:50:36;100247.38;;;28.28;49.19
81931;BME280;71395;43.488;1.472;2023-07-30T09:53:02;100250.63;;;28.33;48.67
81931;BME280;71395;43.488;1.472;2023-07-30T09:55:27;100241.06;;;28.27;48.79
81931;BME280;71395;43.488;1.472;2023-07-30T09:57:53;100250.88;;;28.25;48.83
81931;BME280;71395;43.488;1.472;2023-07-30T10:00:18;100234.34;;;28.25;49.32
81931;BME280;71395;43.488;1.472;2023-07-30T10:02:49;100257.75;;;28.35;49.03
81931;BME280;71395;43.488;1.472;2023-07-30T10:05:16;100240.97;;;28.20;49.23
81931;BME280;71395;43.488;1.472;2023-07-30T10:07:50;100239.03;;;28.24;49.03
81931;BME280;71395;43.488;1.472;2023-07-30T10:10:18;100255.31;;;28.33;48.90
81931;BME280;71395;43.488;1.472;2023-07-30T10:12:44;100247.75;;;28.26;48.77
81931;BME280;71395;43.488;1.472;2023-07-30T10:15:09;100266.34;;;28.33;48.76
81931;BME280;71395;43.488;1.472;2023-07-30T10:17:35;100270.72;;;28.34;49.06
81931;BME280;71395;43.488;1.472;2023-07-30T10:22:45;100262.00;;;28.32;49.05
81931;BME280;71395;43.488;1.472;2023-07-30T10:25:12;100263.59;;;28.33;49.01
81931;BME280;71395;43.488;1.472;2023-07-30T10:27:40;100261.66;;;28.33;48.92
81931;BME280;71395;43.488;1.472;2023-07-30T10:30:16;100256.88;;;28.30;48.82
81931;BME280;71395;43.488;1.472;2023-07-30T10:35:42;100260.03;;;28.32;48.87
81931;BME280;71395;43.488;1.472;2023-07-30T10:38:14;100259.25;;;28.32;49.06
81931;BME280;71395;43.488;1.472;2023-07-30T10:40:40;100240.97;;;28.20;48.88
81931;BME280;71395;43.488;1.472;2023-07-30T10:43:18;100231.41;;;28.14;48.60
81931;BME280;71395;43.488;1.472;2023-07-30T10:45:50;100251.69;;;28.25;48.61
81931;BME280;71395;43.488;1.472;2023-07-30T10:48:16;100259.19;;;28.28;48.70
81931;BME280;71395;43.488;1.472;2023-07-30T10:50:42;100257.59;;;28.27;48.78
81931;BME280;71395;43.488;1.472;2023-07-30T10:53:08;100245.72;;;28.23;48.95
81931;BME280;71395;43.488;1.472;2023-07-30T10:55:34;100252.16;;;28.31;48.78
81931;BME280;71395;43.488;1.472;2023-07-30T10:57:59;100242.63;;;28.25;48.76
81931;BME280;71395;43.488;1.472;2023-07-30T11:00:25;100250.81;;;28.21;48.81
81931;BME280;71395;43.488;1.472;2023-07-30T11:02:54;100259.25;;;28.32;48.71
81931;BME280;71395;43.488;1.472;2023-07-30T11:05:20;100252.09;;;28.27;48.44
81931;BME280;71395;43.488;1.472;2023-07-30T11:07:51;100247.31;;;28.24;48.19
81931;BME280;71395;43.488;1.472;2023-07-30T11:10:17;100236.59;;;28.19;48.75
81931;BME280;71395;43.488;1.472;2023-07-30T11:12:43;100235.81;;;28.19;48.75
81931;BME280;71395;43.488;1.472;2023-07-30T11:15:09;100254.13;;;28.30;48.58
81931;BME280;71395;43.488;1.472;2023-07-30T11:17:35;100247.44;;;28.31;48.61
81931;BME280;71395;43.488;1.472;2023-07-30T11:20:00;100233.97;;;28.26;48.71
81931;BME280;71395;43.488;1.472;2023-07-30T11:22:32;100250.19;;;28.31;48.56
81931;BME280;71395;43.488;1.472;2023-07-30T11:24:58;100239.53;;;28.30;48.59
81931;BME280;71395;43.488;1.472;2023-07-30T11:27:24;100226.00;;;28.21;48.70
81931;BME280;71395;43.488;1.472;2023-07-30T11:29:58;100226.88;;;28.25;48.76
81931;BME280;71395;43.488;1.472;2023-07-30T11:32:24;100232.72;;;28.24;48.69
81931;BME280;71395;43.488;1.472;2023-07-30T11:34:52;100233.97;;;28.26;48.79
81931;BME280;71395;43.488;1.472;2023-07-30T11:37:20;100234.03;;;28.30;48.29
81931;BME280;71395;43.488;1.472;2023-07-30T11:39:46;100215.84;;;28.25;48.46
81931;BME280;71395;43.488;1.472;2023-07-30T11:42:12;100211.84;;;28.23;48.61
81931;BME280;71395;43.488;1.472;2023-07-30T11:44:41;100207.50;;;28.22;48.44
81931;BME280;71395;43.488;1.472;2023-07-30T11:47:07;100216.63;;;28.26;48.58
81931;BME280;71395;43.488;1.472;2023-07-30T11:49:32;100230.03;;;28.27;48.65
81931;BME280;71395;43.488;1.472;2023-07-30T11:52:08;100220.59;;;28.28;48.55
81931;BME280;71395;43.488;1.472;2023-07-30T11:54:34;100226.09;;;28.28;48.82
81931;BME280;71395;43.488;1.472;2023-07-30T11:57:00;100197.59;;;28.17;48.86
81931;BME280;71395;43.488;1.472;2023-07-30T11:59:25;100207.13;;;28.23;48.79
81931;BME280;71395;43.488;1.472;2023-07-30T12:01:51;100210.31;;;28.25;48.54
81931;BME280;71395;43.488;1.472;2023-07-30T12:04:16;100211.78;;;28.19;48.45
81931;BME280;71395;43.488;1.472;2023-07-30T12:06:50;100220.22;;;28.30;48.56
81931;BME280;71395;43.488;1.472;2023-07-30T12:09:21;100216.66;;;28.29;48.57
81931;BME280;71395;43.488;1.472;2023-07-30T12:11:57;100216.66;;;28.29;48.78
81931;BME280;71395;43.488;1.472;2023-07-30T12:14:25;100215.06;;;28.28;48.39
81931;BME280;71395;43.488;1.472;2023-07-30T12:16:55;100213.91;;;28.29;48.77
81931;BME280;71395;43.488;1.472;2023-07-30T12:19:21;100208.22;;;28.19;48.49
81931;BME280;71395;43.488;1.472;2023-07-30T12:21:46;100201.50;;;28.16;48.51
81931;BME280;71395;43.488;1.472;2023-07-30T12:24:11;100205.16;;;28.24;48.53
81931;BME280;71395;43.488;1.472;2023-07-30T12:26:37;100192.13;;;28.21;48.53
81931;BME280;71395;43.488;1.472;2023-07-30T12:29:02;100213.09;;;28.29;48.51
81931;BME280;71395;43.488;1.472;2023-07-30T12:31:28;100213.91;;;28.29;48.71
81931;BME280;71395;43.488;1.472;2023-07-30T12:33:53;100221.03;;;28.30;48.74
81931;BME280;71395;43.488;1.472;2023-07-30T12:36:18;100205.63;;;28.29;48.64
81931;BME280;71395;43.488;1.472;2023-07-30T12:38:44;100189.00;;;28.22;48.56
81931;BME280;71395;43.488;1.472;2023-07-30T12:41:09;100198.50;;;28.25;48.17
81931;BME280;71395;43.488;1.472;2023-07-30T12:43:34;100182.59;;;28.15;48.79
81931;BME280;71395;43.488;1.472;2023-07-30T12:46:00;100191.81;;;28.26;48.77
81931;BME280;71395;43.488;1.472;2023-07-30T12:48:25;100185.03;;;28.20;48.50
81931;BME280;71395;43.488;1.472;2023-07-30T12:50:51;100175.53;;;28.17;48.40
81931;BME280;71395;43.488;1.472;2023-07-30T12:53:16;100166.06;;;28.15;48.81